OIAM  Mahshahr  Airport

Iran

Add Bookmark
ICAO OIAM
IATA MRX
Type Airport
Status Operational
Latitude
30° 33' 22" N
30.556200
Longitude
49° 9' 6" E
49.151901
Local (DST + 5) UTC (GMT + 4)
Apr 21, 2015 07:26 Apr 21, 2015 02:56
Sunrise-Sunset Local UTC
Begin Civil Twilight 06:13 01:43
Sunrise 06:38 02:08
Sunset 07:45 15:15
End Civil Twilight 08:10 15:40
VFR
VFR
MVFR
MVFR
IFR
VFR
LIFR
VFR
Unknown
Unavailable

Current Weather

METAR Observed VFR
OIAM 210200Z 00000KT CAVOK 20/09 Q1011 Tue, Apr 21, 2015 @ 02:00 UTC
(56 Minutes ago)
Visual Flight Rules
Wind Visibility Conditions
Calm 10 km or more
  • No significant weather
Temperatures Readings Precipitation
Current Temp
20°C
68°F
Dewpoint
9°C
48°F
Humidity 49%
Altimeter 29.85" Hg
Sea Level Pressure 1,011 mb
Field Elevation
4 m
13 ft
None Recorded

Additional weather within a 92.6km radius of OIAM

Map ICAO Location
OIAG 54.4km E/NE (067°)
VFR
VFR
MVFR
MVFR
IFR
VFR
LIFR
VFR
Unknown
Unavailable
-
-

CheckWX.com is intended as a tool to help pilots better visualize weather data. It is not intended as a substitute for an official weather briefing obtained from a Flight Service Station. CheckWX.com does not meet the FAA requirements for an official pre-flight weather briefing. Therefore, it's important that pilots still call and obtain an official FSS pre-flight weather briefing.

© 2007-2015 CheckWX.com
02:56:16 UTC